Time;durP1;ratioP1;P1;durP2;ratioP2;P2;SDS_P1;SDS_P2;PMS_P1;PMS_P2;Temp;Humidity;BMP_temperature;BMP_pressure;BME280_temperature;BME280_humidity;BME280_pressure;Samples;Min_cycle;Max_cycle;Signal;HPM_P1;HPM_P2
2021/07/22 00:00:18;;;;;;;;;;;16.40;99.90;;;;;;5087379;28;20417;-74
2021/07/22 00:02:47;;;;;;;;;;;16.30;99.90;;;;;;5070834;28;19986;-75
2021/07/22 00:05:19;;;;;;;;;;;16.30;99.90;;;;;;5065898;28;19950;-74
2021/07/22 00:07:46;;;;;;;;;;;16.30;99.90;;;;;;5091019;28;19974;-75
2021/07/22 00:10:14;;;;;;;;;;;16.30;99.90;;;;;;5071211;28;20394;-75
2021/07/22 00:12:41;;;;;;;;;;;16.20;99.90;;;;;;5056520;28;20023;-74
2021/07/22 00:15:13;;;;;;;;;;;16.10;99.90;;;;;;5069589;28;20022;-75
2021/07/22 00:17:39;;;;;;;;;;;16.10;99.90;;;;;;5087792;28;19960;-75
2021/07/22 00:20:11;;;;;;;;;;;16.00;99.90;;;;;;5092505;28;19924;-75
2021/07/22 00:22:43;;;;;;;;;;;16.00;99.90;;;;;;5087877;28;20012;-75
2021/07/22 00:25:14;;;;;;;;;;;16.00;99.90;;;;;;5077747;28;20018;-75
2021/07/22 00:27:41;;;;;;;;;;;15.90;99.90;;;;;;5089415;28;20360;-74
2021/07/22 00:30:08;;;;;;;;;;;15.90;99.90;;;;;;5070887;28;20011;-75
2021/07/22 00:32:39;;;;;;;;;;;15.80;99.90;;;;;;5069808;28;19975;-75
2021/07/22 00:35:11;;;;;;;;;;;15.80;99.90;;;;;;5078952;28;20387;-75
2021/07/22 00:37:38;;;;;;;;;;;15.80;99.90;;;;;;5087319;28;20382;-74
2021/07/22 00:40:05;;;;;;;;;;;15.80;99.90;;;;;;5087674;28;19982;-75
2021/07/22 00:42:51;;;;;;;;;;;15.80;99.90;;;;;;5070614;28;20397;-75
2021/07/22 00:45:18;;;;;;;;;;;15.80;99.90;;;;;;5065341;28;20362;-74
2021/07/22 00:47:45;;;;;;;;;;;15.80;99.90;;;;;;5090583;28;19924;-74
2021/07/22 00:50:11;;;;;;;;;;;15.90;99.90;;;;;;5087342;28;19924;-75
2021/07/22 00:52:44;;;;;;;;;;;16.00;99.90;;;;;;5058490;28;19924;-75
2021/07/22 00:55:18;;;;;;;;;;;15.90;99.90;;;;;;5070063;28;19928;-75
2021/07/22 00:57:49;;;;;;;;;;;15.90;99.90;;;;;;5094886;28;19924;-75
2021/07/22 01:00:22;;;;;;;;;;;15.90;99.90;;;;;;5074941;28;19925;-75
2021/07/22 01:02:49;;;;;;;;;;;15.80;99.90;;;;;;5073697;28;19936;-75
2021/07/22 01:05:16;;;;;;;;;;;15.80;99.90;;;;;;5084958;28;19924;-75
2021/07/22 01:07:43;;;;;;;;;;;15.70;99.90;;;;;;5093637;28;19924;-75
2021/07/22 01:10:10;;;;;;;;;;;15.80;99.90;;;;;;5073859;28;19924;-75
2021/07/22 01:12:42;;;;;;;;;;;15.70;99.90;;;;;;5057669;28;19925;-74
2021/07/22 01:15:14;;;;;;;;;;;15.70;99.90;;;;;;5068727;28;19931;-74
2021/07/22 01:17:47;;;;;;;;;;;15.70;99.90;;;;;;5094309;28;20406;-75
2021/07/22 01:20:18;;;;;;;;;;;15.70;99.90;;;;;;5091150;28;19934;-75
2021/07/22 01:22:46;;;;;;;;;;;15.70;99.90;;;;;;5057628;28;19963;-75
2021/07/22 01:25:19;;;;;;;;;;;15.60;99.90;;;;;;5085383;28;19927;-75
2021/07/22 01:27:47;;;;;;;;;;;15.60;99.90;;;;;;5093536;28;19924;-75
2021/07/22 01:30:20;;;;;;;;;;;15.60;99.90;;;;;;5090128;28;19970;-75
2021/07/22 01:32:47;;;;;;;;;;;15.50;99.90;;;;;;5072933;28;19962;-75
2021/07/22 01:35:14;;;;;;;;;;;15.50;99.90;;;;;;5064078;28;19978;-75
2021/07/22 01:37:43;;;;;;;;;;;15.50;99.90;;;;;;5090718;28;20388;-75
2021/07/22 01:40:11;;;;;;;;;;;15.40;99.90;;;;;;5074138;28;20045;-75
2021/07/22 01:42:38;;;;;;;;;;;15.50;99.90;;;;;;5056763;28;19924;-74
2021/07/22 01:45:11;;;;;;;;;;;15.40;99.90;;;;;;5065160;28;19925;-75
2021/07/22 01:47:46;;;;;;;;;;;15.40;99.90;;;;;;5075701;28;20301;-75
2021/07/22 01:50:13;;;;;;;;;;;15.40;99.90;;;;;;5073552;28;19924;-74
2021/07/22 01:52:41;;;;;;;;;;;15.40;99.90;;;;;;5056757;28;20448;-75
2021/07/22 01:55:09;;;;;;;;;;;15.40;99.90;;;;;;5081165;28;19951;-74
2021/07/22 01:57:47;;;;;;;;;;;15.30;99.90;;;;;;5075748;28;20287;-75
2021/07/22 02:00:14;;;;;;;;;;;15.30;99.90;;;;;;5090345;28;20023;-75
2021/07/22 02:02:54;;;;;;;;;;;15.20;99.90;;;;;;5072287;28;20310;-75
2021/07/22 02:05:25;;;;;;;;;;;15.10;99.90;;;;;;5069482;28;20342;-74
2021/07/22 02:07:58;;;;;;;;;;;15.00;99.90;;;;;;5077109;28;19930;-74
2021/07/22 02:10:30;;;;;;;;;;;15.00;99.90;;;;;;5073324;28;19924;-75
2021/07/22 02:12:58;;;;;;;;;;;15.00;99.90;;;;;;5058525;28;19924;-75
2021/07/22 02:15:35;;;;;;;;;;;15.00;99.90;;;;;;5086898;28;19977;-75
2021/07/22 02:18:03;;;;;;;;;;;15.00;99.90;;;;;;5076301;28;19924;-75
2021/07/22 02:20:35;;;;;;;;;;;15.00;99.90;;;;;;5057004;28;19929;-75
2021/07/22 02:23:07;;;;;;;;;;;15.00;99.90;;;;;;5076454;28;20294;-75
2021/07/22 02:26:04;;;;;;;;;;;15.00;99.90;;;;;;5090505;28;20394;-74
2021/07/22 02:28:31;;;;;;;;;;;15.00;99.90;;;;;;5076008;28;19924;-74
2021/07/22 02:30:58;;;;;;;;;;;15.00;99.90;;;;;;5092794;28;19928;-75
2021/07/22 02:33:31;;;;;;;;;;;15.00;99.90;;;;;;5089540;28;20015;-75
2021/07/22 02:36:04;;;;;;;;;;;15.00;99.90;;;;;;5090529;28;19924;-75
2021/07/22 02:38:51;;;;;;;;;;;15.00;99.90;;;;;;5078841;28;20386;-75
2021/07/22 02:41:19;;;;;;;;;;;15.00;99.90;;;;;;5092480;28;20188;-75
2021/07/22 02:43:51;;;;;;;;;;;15.00;99.90;;;;;;5072864;28;19996;-75
2021/07/22 02:46:18;;;;;;;;;;;14.90;99.90;;;;;;5092300;28;19928;-75
2021/07/22 02:48:56;;;;;;;;;;;14.90;99.90;;;;;;5092318;28;19927;-75
2021/07/22 02:51:26;;;;;;;;;;;14.90;99.90;;;;;;5092212;28;20448;-75
2021/07/22 02:53:58;;;;;;;;;;;14.80;99.90;;;;;;5089374;28;19946;-75
2021/07/22 02:56:31;;;;;;;;;;;14.80;99.90;;;;;;5092172;28;19931;-74
2021/07/22 02:59:02;;;;;;;;;;;14.80;99.90;;;;;;5084138;28;19924;-75
2021/07/22 03:01:32;;;;;;;;;;;14.70;99.90;;;;;;5092108;28;19946;-74
2021/07/22 03:04:01;;;;;;;;;;;14.70;99.90;;;;;;5088839;28;20230;-74
2021/07/22 03:06:42;;;;;;;;;;;14.70;99.90;;;;;;5074823;28;20027;-74
2021/07/22 03:09:15;;;;;;;;;;;14.70;99.90;;;;;;5087893;28;19924;-75
2021/07/22 03:11:48;;;;;;;;;;;14.70;99.90;;;;;;5072639;28;19929;-75
2021/07/22 03:14:21;;;;;;;;;;;14.60;99.90;;;;;;5074824;28;19982;-75
2021/07/22 03:16:55;;;;;;;;;;;14.60;99.90;;;;;;5091663;28;19928;-75
2021/07/22 03:19:37;;;;;;;;;;;14.60;99.90;;;;;;5088690;28;19935;-74
2021/07/22 03:22:13;;;;;;;;;;;14.50;99.90;;;;;;5072977;28;19946;-75
2021/07/22 03:25:08;;;;;;;;;;;14.60;99.90;;;;;;5077141;28;19924;-75
2021/07/22 03:28:04;;;;;;;;;;;14.60;99.90;;;;;;5070495;28;19924;-75
2021/07/22 03:30:54;;;;;;;;;;;14.60;99.90;;;;;;5091786;28;19928;-75
2021/07/22 03:34:01;;;;;;;;;;;14.60;99.90;;;;;;5078910;28;19928;-75
2021/07/22 03:36:34;;;;;;;;;;;14.50;99.90;;;;;;5090117;28;19924;-75
2021/07/22 03:39:13;;;;;;;;;;;14.50;99.90;;;;;;5066233;28;19931;-75
2021/07/22 03:41:48;;;;;;;;;;;14.40;99.90;;;;;;5072429;28;20395;-74
2021/07/22 03:44:26;;;;;;;;;;;14.40;99.90;;;;;;5071606;28;20434;-75
2021/07/22 03:46:58;;;;;;;;;;;14.50;99.90;;;;;;5075176;28;20002;-75
2021/07/22 03:49:33;;;;;;;;;;;14.50;99.90;;;;;;5086873;28;19924;-75
2021/07/22 03:52:18;;;;;;;;;;;14.50;99.90;;;;;;5070293;28;19925;-75
2021/07/22 03:54:53;;;;;;;;;;;14.50;99.90;;;;;;5071854;28;20386;-75
2021/07/22 03:57:26;;;;;;;;;;;14.50;99.90;;;;;;5065635;28;19924;-74
2021/07/22 03:59:58;;;;;;;;;;;14.40;99.90;;;;;;5067554;28;19924;-74
2021/07/22 04:02:26;;;;;;;;;;;14.40;99.90;;;;;;5070109;28;19925;-74
2021/07/22 04:04:58;;;;;;;;;;;14.50;99.90;;;;;;5077931;28;19928;-74
2021/07/22 04:07:30;;;;;;;;;;;14.40;99.90;;;;;;5086329;28;20410;-73
2021/07/22 04:10:13;;;;;;;;;;;14.40;99.90;;;;;;5093480;28;19924;-75
2021/07/22 04:12:58;;;;;;;;;;;14.40;99.90;;;;;;5087706;28;20306;-74
2021/07/22 04:15:32;;;;;;;;;;;14.40;99.90;;;;;;5079306;28;20282;-75
2021/07/22 04:18:18;;;;;;;;;;;14.40;99.90;;;;;;5083904;28;20015;-75
2021/07/22 04:21:23;;;;;;;;;;;14.30;99.90;;;;;;5089342;28;19924;-75
2021/07/22 04:23:54;;;;;;;;;;;14.40;99.90;;;;;;5086231;28;20415;-75
2021/07/22 04:26:37;;;;;;;;;;;14.40;99.90;;;;;;5083528;28;20291;-75
2021/07/22 04:29:30;;;;;;;;;;;14.40;99.90;;;;;;5077615;28;19935;-75
2021/07/22 04:31:57;;;;;;;;;;;14.50;99.90;;;;;;5072593;28;20333;-75
2021/07/22 04:34:38;;;;;;;;;;;14.50;99.90;;;;;;5086875;28;20015;-74
2021/07/22 04:37:29;;;;;;;;;;;14.50;99.90;;;;;;5068303;28;20290;-75
2021/07/22 04:40:26;;;;;;;;;;;14.50;99.90;;;;;;5086795;28;19982;-74
2021/07/22 04:43:19;;;;;;;;;;;14.50;99.90;;;;;;5073571;28;19931;-75
2021/07/22 04:46:09;;;;;;;;;;;14.60;99.90;;;;;;5058267;28;19924;-74
2021/07/22 04:48:57;;;;;;;;;;;14.60;99.90;;;;;;5086741;28;20315;-74
2021/07/22 04:51:43;;;;;;;;;;;14.70;99.90;;;;;;5057802;28;19943;-74
2021/07/22 04:54:23;;;;;;;;;;;14.70;99.90;;;;;;5085377;28;19954;-74
2021/07/22 04:56:56;;;;;;;;;;;14.70;99.90;;;;;;5085218;28;20503;-75
2021/07/22 04:59:32;;;;;;;;;;;14.70;99.90;;;;;;5084747;28;20414;-74
2021/07/22 05:02:03;;;;;;;;;;;14.70;99.90;;;;;;5088489;28;19979;-75
2021/07/22 05:04:35;;;;;;;;;;;14.80;99.90;;;;;;5087061;28;20423;-75
2021/07/22 05:07:07;;;;;;;;;;;14.80;99.90;;;;;;5091196;28;20433;-75
2021/07/22 05:09:51;;;;;;;;;;;14.80;99.90;;;;;;5110702;28;19930;-74
2021/07/22 05:12:23;;;;;;;;;;;14.80;99.90;;;;;;5093059;28;19976;-74
2021/07/22 05:15:21;;;;;;;;;;;14.70;99.90;;;;;;5092379;28;19929;-74
2021/07/22 05:18:06;;;;;;;;;;;14.70;99.90;;;;;;5074597;28;19931;-75
2021/07/22 05:21:05;;;;;;;;;;;14.70;99.90;;;;;;5089934;28;20559;-74
2021/07/22 05:24:00;;;;;;;;;;;14.70;99.90;;;;;;5088275;28;19928;-74
2021/07/22 05:26:50;;;;;;;;;;;14.70;99.90;;;;;;5064382;28;19924;-75
2021/07/22 05:29:33;;;;;;;;;;;14.70;99.90;;;;;;5089245;28;19930;-74
2021/07/22 05:32:13;;;;;;;;;;;14.70;99.90;;;;;;5088281;28;19973;-75
2021/07/22 05:34:56;;;;;;;;;;;14.70;99.90;;;;;;5077831;28;20017;-75
2021/07/22 05:37:45;;;;;;;;;;;14.70;99.90;;;;;;5056484;28;19932;-74
2021/07/22 05:40:12;;;;;;;;;;;14.80;99.90;;;;;;5096217;28;19963;-75
2021/07/22 05:42:44;;;;;;;;;;;14.90;99.90;;;;;;5092671;28;19973;-75
2021/07/22 05:45:16;;;;;;;;;;;14.90;99.90;;;;;;5091607;28;19930;-75
2021/07/22 05:47:47;;;;;;;;;;;15.00;99.90;;;;;;5074306;28;19964;-74
2021/07/22 05:50:19;;;;;;;;;;;15.10;99.90;;;;;;5111121;28;20089;-75
2021/07/22 05:52:46;;;;;;;;;;;15.10;99.90;;;;;;5107599;28;19963;-75
2021/07/22 05:55:12;;;;;;;;;;;15.20;99.90;;;;;;5073200;28;19928;-75
2021/07/22 05:57:39;;;;;;;;;;;15.30;99.90;;;;;;5095247;28;19931;-75
2021/07/22 06:00:06;;;;;;;;;;;15.40;99.90;;;;;;5092878;28;19924;-75
2021/07/22 06:02:40;;;;;;;;;;;15.70;99.90;;;;;;5091165;28;19928;-75
2021/07/22 06:05:09;;;;;;;;;;;15.80;99.90;;;;;;5072105;28;19928;-75
2021/07/22 06:07:36;;;;;;;;;;;15.90;99.90;;;;;;5092549;28;19955;-75
2021/07/22 06:10:03;;;;;;;;;;;15.90;99.90;;;;;;5076114;28;19978;-75
2021/07/22 06:12:34;;;;;;;;;;;15.90;99.90;;;;;;5076045;28;20396;-75
2021/07/22 06:15:01;;;;;;;;;;;16.00;99.90;;;;;;5091882;28;19935;-75
2021/07/22 06:17:28;;;;;;;;;;;16.10;99.90;;;;;;5092474;28;19951;-75
2021/07/22 06:19:59;;;;;;;;;;;16.10;99.90;;;;;;5092499;28;19924;-75
2021/07/22 06:22:31;;;;;;;;;;;16.20;99.90;;;;;;5092284;28;19970;-75
2021/07/22 06:24:58;;;;;;;;;;;16.10;99.90;;;;;;5091576;28;19931;-75
2021/07/22 06:27:29;;;;;;;;;;;16.20;99.90;;;;;;5092928;28;20365;-75
2021/07/22 06:30:00;;;;;;;;;;;16.30;99.90;;;;;;5075770;28;20365;-75
2021/07/22 06:32:32;;;;;;;;;;;16.30;99.90;;;;;;5092444;28;19989;-75
2021/07/22 06:34:58;;;;;;;;;;;16.30;99.90;;;;;;5090605;28;19967;-75
2021/07/22 06:37:25;;;;;;;;;;;16.40;99.90;;;;;;5092615;28;19952;-75
2021/07/22 06:39:59;;;;;;;;;;;16.40;99.90;;;;;;5092573;28;19924;-75
2021/07/22 06:42:31;;;;;;;;;;;16.40;99.90;;;;;;5091999;28;19927;-75
2021/07/22 06:44:58;;;;;;;;;;;16.50;99.90;;;;;;5091254;28;20002;-75
2021/07/22 06:47:29;;;;;;;;;;;16.50;99.90;;;;;;5071887;28;19925;-75
2021/07/22 06:49:56;;;;;;;;;;;16.60;99.90;;;;;;5092262;28;19924;-75
2021/07/22 06:52:28;;;;;;;;;;;16.60;99.90;;;;;;5075706;28;20043;-75
2021/07/22 06:54:54;;;;;;;;;;;16.70;99.90;;;;;;5088383;28;20351;-75
2021/07/22 06:57:21;;;;;;;;;;;16.80;99.90;;;;;;5067725;28;19960;-75
2021/07/22 06:59:48;;;;;;;;;;;16.90;99.90;;;;;;5091307;28;20017;-75
2021/07/22 07:02:19;;;;;;;;;;;17.00;99.90;;;;;;5091497;28;20312;-75
2021/07/22 07:04:46;;;;;;;;;;;17.10;99.90;;;;;;5089129;28;20055;-75
2021/07/22 07:07:19;;;;;;;;;;;17.20;99.90;;;;;;5091670;28;19930;-75
2021/07/22 07:09:46;;;;;;;;;;;17.30;99.90;;;;;;5074806;28;19932;-75
2021/07/22 07:12:19;;;;;;;;;;;17.40;99.90;;;;;;5091317;28;19924;-75
2021/07/22 07:14:51;;;;;;;;;;;17.50;99.90;;;;;;5077775;28;19986;-75
2021/07/22 07:17:18;;;;;;;;;;;17.60;99.90;;;;;;5091917;28;19932;-75
2021/07/22 07:19:44;;;;;;;;;;;17.70;99.90;;;;;;5092009;28;20412;-75
2021/07/22 07:22:11;;;;;;;;;;;17.80;99.90;;;;;;5092115;28;19924;-75
2021/07/22 07:24:38;;;;;;;;;;;17.80;99.90;;;;;;5089825;28;19968;-75
2021/07/22 07:27:09;;;;;;;;;;;17.90;99.90;;;;;;5071836;28;19924;-75
2021/07/22 07:29:36;;;;;;;;;;;18.00;99.90;;;;;;5088020;28;20297;-75
2021/07/22 07:32:03;;;;;;;;;;;18.00;99.90;;;;;;5071846;28;20448;-75
2021/07/22 07:34:29;;;;;;;;;;;18.10;99.90;;;;;;5070910;28;19981;-75
2021/07/22 07:36:56;;;;;;;;;;;18.20;99.90;;;;;;5078274;28;19932;-75
2021/07/22 07:39:23;;;;;;;;;;;18.30;99.90;;;;;;5091170;28;19958;-75
2021/07/22 07:41:50;;;;;;;;;;;18.40;99.90;;;;;;5091916;28;19932;-75
2021/07/22 07:44:16;;;;;;;;;;;18.50;99.90;;;;;;5089487;28;20018;-75
2021/07/22 07:46:48;;;;;;;;;;;18.60;99.90;;;;;;5088962;28;19924;-75
2021/07/22 07:49:20;;;;;;;;;;;18.70;99.90;;;;;;5087242;28;19925;-75
2021/07/22 07:51:51;;;;;;;;;;;18.80;99.90;;;;;;5070363;28;19929;-75
2021/07/22 07:54:23;;;;;;;;;;;19.00;99.90;;;;;;5070410;28;19967;-75
2021/07/22 07:56:50;;;;;;;;;;;19.10;99.90;;;;;;5090314;28;20027;-75
2021/07/22 07:59:17;;;;;;;;;;;19.20;99.90;;;;;;5074130;28;19966;-75
2021/07/22 08:01:44;;;;;;;;;;;19.30;99.90;;;;;;5072839;28;19969;-75
2021/07/22 08:04:11;;;;;;;;;;;19.40;99.90;;;;;;5086252;28;20015;-75
2021/07/22 08:06:37;;;;;;;;;;;19.50;99.90;;;;;;5088496;28;19956;-75
2021/07/22 08:09:09;;;;;;;;;;;19.60;99.90;;;;;;5088643;28;19924;-75
2021/07/22 08:11:41;;;;;;;;;;;19.80;99.90;;;;;;5087954;28;20559;-75
2021/07/22 08:14:13;;;;;;;;;;;19.90;99.90;;;;;;5073184;28;19950;-75
2021/07/22 08:16:41;;;;;;;;;;;20.00;99.90;;;;;;5089423;28;19994;-74
2021/07/22 08:19:13;;;;;;;;;;;20.20;99.90;;;;;;5072977;28;19924;-75
2021/07/22 08:21:46;;;;;;;;;;;20.30;99.90;;;;;;5071126;28;20647;-75
2021/07/22 08:24:18;;;;;;;;;;;20.40;99.90;;;;;;5090093;28;19924;-75
2021/07/22 08:26:45;;;;;;;;;;;20.50;99.90;;;;;;5086970;28;20015;-75
2021/07/22 08:29:11;;;;;;;;;;;20.60;99.90;;;;;;5070571;28;22575;-75
2021/07/22 08:31:38;;;;;;;;;;;20.70;99.90;;;;;;5069896;28;19971;-76
2021/07/22 08:34:12;;;;;;;;;;;20.80;99.90;;;;;;5070290;28;20005;-75
2021/07/22 08:36:38;;;;;;;;;;;20.90;99.90;;;;;;5053669;28;20027;-76
2021/07/22 08:39:10;;;;;;;;;;;21.00;99.90;;;;;;5070264;28;19928;-75
2021/07/22 08:41:42;;;;;;;;;;;21.10;99.90;;;;;;5069575;28;19924;-75
2021/07/22 08:44:13;;;;;;;;;;;21.20;99.90;;;;;;5070646;28;19928;-75
2021/07/22 08:46:45;;;;;;;;;;;21.30;99.90;;;;;;5070134;28;19925;-75
2021/07/22 08:49:14;;;;;;;;;;;21.50;99.90;;;;;;5086544;28;19928;-76
2021/07/22 08:51:41;;;;;;;;;;;21.60;99.90;;;;;;5086488;28;19928;-74
2021/07/22 08:54:14;;;;;;;;;;;21.70;99.90;;;;;;5086695;28;19963;-75
2021/07/22 08:56:46;;;;;;;;;;;21.80;99.90;;;;;;5054400;28;19971;-75
2021/07/22 08:59:13;;;;;;;;;;;22.00;99.90;;;;;;5069827;28;20364;-75
2021/07/22 09:01:41;;;;;;;;;;;22.10;99.90;;;;;;5088627;28;19928;-75
2021/07/22 09:04:12;;;;;;;;;;;22.20;99.90;;;;;;5089892;28;20351;-75
2021/07/22 09:06:39;;;;;;;;;;;22.30;99.90;;;;;;5089980;28;19924;-75
2021/07/22 09:09:12;;;;;;;;;;;22.40;99.90;;;;;;5073405;28;19932;-75
2021/07/22 09:11:57;;;;;;;;;;;22.40;99.90;;;;;;5091565;28;20370;-75
2021/07/22 09:14:30;;;;;;;;;;;22.50;99.90;;;;;;5093788;28;19924;-75
2021/07/22 09:16:57;;;;;;;;;;;22.70;99.90;;;;;;5093655;28;19931;-75
2021/07/22 09:19:31;;;;;;;;;;;22.80;99.90;;;;;;5095098;28;20015;-75
2021/07/22 09:22:09;;;;;;;;;;;22.80;99.90;;;;;;5092802;28;20011;-75
2021/07/22 09:24:49;;;;;;;;;;;23.00;99.90;;;;;;5094153;28;19924;-77
2021/07/22 09:27:50;;;;;;;;;;;23.10;99.90;;;;;;5093934;28;19981;-75
2021/07/22 09:30:21;;;;;;;;;;;23.20;99.90;;;;;;5074198;28;19924;-76
2021/07/22 09:32:53;;;;;;;;;;;23.40;99.90;;;;;;5093139;28;20018;-75
2021/07/22 09:35:26;;;;;;;;;;;23.50;99.90;;;;;;5094631;28;19924;-75
2021/07/22 09:37:58;;;;;;;;;;;23.60;99.90;;;;;;5093708;28;20006;-75
2021/07/22 09:40:35;;;;;;;;;;;23.70;99.90;;;;;;5093816;28;20019;-76
2021/07/22 09:43:06;;;;;;;;;;;23.80;99.90;;;;;;5093546;28;19970;-75
2021/07/22 09:45:36;;;;;;;;;;;24.00;99.90;;;;;;5076776;28;19959;-75
2021/07/22 09:48:06;;;;;;;;;;;24.10;99.90;;;;;;5075927;28;19963;-75
2021/07/22 09:50:41;;;;;;;;;;;24.10;99.90;;;;;;5092805;28;19924;-75
2021/07/22 09:53:12;;;;;;;;;;;24.20;99.90;;;;;;5093206;28;19963;-75
2021/07/22 09:55:40;;;;;;;;;;;24.30;99.90;;;;;;5092413;28;19924;-76
2021/07/22 09:58:12;;;;;;;;;;;24.30;99.90;;;;;;5093376;28;19964;-75
2021/07/22 10:00:46;;;;;;;;;;;24.30;99.90;;;;;;5090420;28;20019;-75
2021/07/22 10:03:21;;;;;;;;;;;24.40;99.90;;;;;;5089875;28;19970;-76
2021/07/22 10:05:51;;;;;;;;;;;24.40;99.90;;;;;;5074101;28;20394;-76
2021/07/22 10:08:18;;;;;;;;;;;24.50;99.90;;;;;;5089833;28;19968;-75
2021/07/22 10:10:56;;;;;;;;;;;24.70;99.90;;;;;;5056055;28;19974;-75
2021/07/22 10:13:39;;;;;;;;;;;24.80;99.90;;;;;;5057447;28;20385;-75
2021/07/22 10:16:07;;;;;;;;;;;24.80;99.90;;;;;;5072494;28;19968;-75
2021/07/22 10:18:36;;;;;;;;;;;24.90;99.90;;;;;;5089219;28;20015;-76
2021/07/22 10:21:08;;;;;;;;;;;25.00;99.90;;;;;;5071924;28;19931;-75
2021/07/22 10:23:34;;;;;;;;;;;25.10;99.90;;;;;;5088513;28;20039;-75
2021/07/22 10:26:07;;;;;;;;;;;25.30;99.90;;;;;;5072488;28;19931;-76
2021/07/22 10:28:33;;;;;;;;;;;25.40;99.90;;;;;;5072586;28;20486;-75
2021/07/22 10:31:06;;;;;;;;;;;25.50;99.60;;;;;;5072127;28;20024;-75
2021/07/22 10:33:34;;;;;;;;;;;25.60;99.80;;;;;;5072171;28;19963;-75
2021/07/22 10:36:06;;;;;;;;;;;25.70;99.30;;;;;;5072038;28;19931;-75
2021/07/22 10:38:47;;;;;;;;;;;25.70;96.30;;;;;;5055553;28;19963;-75
2021/07/22 10:41:32;;;;;;;;;;;25.70;98.60;;;;;;5056480;28;20352;-75
2021/07/22 10:44:08;;;;;;;;;;;25.80;97.10;;;;;;5074976;28;20040;-76
2021/07/22 10:47:14;;;;;;;;;;;25.90;97.20;;;;;;5072861;28;19960;-74
2021/07/22 10:49:41;;;;;;;;;;;26.00;96.80;;;;;;4994408;28;20023;-75
2021/07/22 10:52:15;;;;;;;;;;;26.00;95.50;;;;;;4982629;28;19933;-75
2021/07/22 10:54:44;;;;;;;;;;;26.00;96.70;;;;;;5033017;28;20031;-75
2021/07/22 10:57:28;;;;;;;;;;;26.10;95.10;;;;;;5082261;28;19959;-75
2021/07/22 10:59:57;;;;;;;;;;;26.10;94.00;;;;;;5055053;28;20026;-75
2021/07/22 11:02:43;;;;;;;;;;;26.20;93.10;;;;;;5072193;28;20019;-75
2021/07/22 11:05:30;;;;;;;;;;;26.20;95.10;;;;;;5076984;28;19928;-75
2021/07/22 11:08:21;;;;;;;;;;;26.30;95.80;;;;;;5093268;28;19924;-76
2021/07/22 11:10:57;;;;;;;;;;;26.40;94.40;;;;;;5073193;28;20015;-75
2021/07/22 11:13:33;;;;;;;;;;;26.60;94.50;;;;;;5073520;28;20000;-75
2021/07/22 11:16:01;;;;;;;;;;;26.60;94.00;;;;;;5089033;28;19924;-75
2021/07/22 11:18:39;;;;;;;;;;;26.70;94.50;;;;;;5081503;28;19928;-76
2021/07/22 11:21:07;;;;;;;;;;;26.80;94.20;;;;;;5089256;28;19931;-75
2021/07/22 11:23:34;;;;;;;;;;;26.80;93.00;;;;;;5094841;28;19924;-75
2021/07/22 11:26:06;;;;;;;;;;;26.90;93.30;;;;;;5092015;28;19923;-75
2021/07/22 11:28:47;;;;;;;;;;;27.10;94.40;;;;;;5094795;28;19955;-75
2021/07/22 11:31:14;;;;;;;;;;;27.30;91.10;;;;;;5083662;28;19938;-75
2021/07/22 11:33:41;;;;;;;;;;;27.30;92.30;;;;;;5076386;28;19932;-75
2021/07/22 11:36:14;;;;;;;;;;;27.40;91.00;;;;;;5086518;28;20019;-75
2021/07/22 11:38:41;;;;;;;;;;;27.30;88.40;;;;;;5069913;28;19932;-75
2021/07/22 11:41:12;;;;;;;;;;;27.20;88.50;;;;;;5080062;28;19985;-75
2021/07/22 11:43:45;;;;;;;;;;;27.20;87.80;;;;;;5084501;28;19928;-75
2021/07/22 11:46:17;;;;;;;;;;;27.00;85.00;;;;;;5092144;28;19924;-75
2021/07/22 11:48:49;;;;;;;;;;;27.00;85.60;;;;;;5081950;28;19932;-75
2021/07/22 11:51:16;;;;;;;;;;;27.10;89.50;;;;;;5078392;28;20305;-75
2021/07/22 11:53:47;;;;;;;;;;;27.20;90.80;;;;;;5087932;28;19924;-75
2021/07/22 11:56:19;;;;;;;;;;;27.40;88.40;;;;;;5098816;28;19950;-75
2021/07/22 11:58:47;;;;;;;;;;;27.40;87.40;;;;;;5086818;28;19970;-75
2021/07/22 12:01:19;;;;;;;;;;;27.50;87.10;;;;;;5095723;28;19988;-74
2021/07/22 12:03:51;;;;;;;;;;;27.50;83.80;;;;;;5079740;28;19928;-75
2021/07/22 12:06:21;;;;;;;;;;;27.50;85.30;;;;;;5088835;28;19963;-75
2021/07/22 12:09:00;;;;;;;;;;;27.60;86.50;;;;;;5093770;28;20722;-75
2021/07/22 12:11:27;;;;;;;;;;;27.60;84.00;;;;;;5085016;28;20022;-75
2021/07/22 12:13:54;;;;;;;;;;;27.60;82.10;;;;;;5063387;28;19924;-75
2021/07/22 12:16:27;;;;;;;;;;;27.60;81.50;;;;;;5070521;28;19967;-75
2021/07/22 12:18:58;;;;;;;;;;;27.60;83.80;;;;;;5101503;28;20010;-74
2021/07/22 12:21:26;;;;;;;;;;;27.80;82.20;;;;;;5101408;28;19946;-74
2021/07/22 12:23:53;;;;;;;;;;;27.90;85.30;;;;;;5093575;28;19985;-76
2021/07/22 12:26:20;;;;;;;;;;;28.10;81.80;;;;;;5094541;28;19923;-74
2021/07/22 12:29:00;;;;;;;;;;;28.00;81.80;;;;;;5092091;28;19924;-74
2021/07/22 12:31:35;;;;;;;;;;;28.20;82.60;;;;;;5106731;28;19930;-74
2021/07/22 12:34:07;;;;;;;;;;;28.20;77.40;;;;;;5098648;28;20459;-73
2021/07/22 12:36:38;;;;;;;;;;;28.20;79.10;;;;;;5110847;28;19924;-73
2021/07/22 12:39:08;;;;;;;;;;;28.40;82.50;;;;;;5112985;28;19928;-73
2021/07/22 12:41:35;;;;;;;;;;;28.40;76.80;;;;;;5112324;28;20018;-73
2021/07/22 12:44:06;;;;;;;;;;;28.60;80.30;;;;;;5095347;28;19959;-73
2021/07/22 12:46:38;;;;;;;;;;;28.60;73.60;;;;;;5111985;28;19986;-73
2021/07/22 12:49:05;;;;;;;;;;;28.60;74.20;;;;;;5108649;28;19959;-73
2021/07/22 12:51:37;;;;;;;;;;;28.60;72.80;;;;;;5094640;28;19985;-73
2021/07/22 12:54:12;;;;;;;;;;;28.70;73.60;;;;;;5096770;28;19991;-76
2021/07/22 12:56:44;;;;;;;;;;;28.70;73.30;;;;;;5095135;28;19972;-73
2021/07/22 12:59:13;;;;;;;;;;;28.70;71.60;;;;;;5089042;28;20307;-74
2021/07/22 13:01:54;;;;;;;;;;;28.70;70.40;;;;;;5075830;28;20019;-77
2021/07/22 13:04:21;;;;;;;;;;;28.60;69.40;;;;;;5074997;28;20453;-74
2021/07/22 13:06:54;;;;;;;;;;;28.60;70.90;;;;;;5077511;28;19960;-74
2021/07/22 13:09:25;;;;;;;;;;;28.60;69.70;;;;;;5098511;28;19999;-74
2021/07/22 13:11:56;;;;;;;;;;;28.50;69.10;;;;;;5093834;28;20309;-73
2021/07/22 13:14:23;;;;;;;;;;;28.70;70.80;;;;;;5094521;28;20039;-75
2021/07/22 13:16:50;;;;;;;;;;;29.00;75.00;;;;;;5095004;28;19924;-74
2021/07/22 13:19:22;;;;;;;;;;;29.10;67.30;;;;;;5078212;28;19971;-76
2021/07/22 13:21:48;;;;;;;;;;;29.20;66.80;;;;;;5093873;28;19977;-74
2021/07/22 13:24:20;;;;;;;;;;;29.30;68.00;;;;;;5094508;28;19938;-75
2021/07/22 13:26:48;;;;;;;;;;;29.30;63.90;;;;;;5094433;28;19924;-74
2021/07/22 13:29:21;;;;;;;;;;;29.30;67.00;;;;;;5096404;28;19960;-74
2021/07/22 13:31:53;;;;;;;;;;;29.10;68.50;;;;;;5078612;28;19959;-74
2021/07/22 13:34:25;;;;;;;;;;;29.00;70.10;;;;;;5094162;28;19970;-75
2021/07/22 13:36:57;;;;;;;;;;;29.10;71.70;;;;;;5078282;28;20026;-75
2021/07/22 13:39:28;;;;;;;;;;;29.20;68.40;;;;;;5095541;28;19960;-75
2021/07/22 13:42:00;;;;;;;;;;;29.50;66.80;;;;;;5093656;28;19923;-75
2021/07/22 13:44:27;;;;;;;;;;;29.70;67.40;;;;;;5093513;28;19924;-74
2021/07/22 13:46:58;;;;;;;;;;;29.90;65.70;;;;;;5093207;28;19928;-75
2021/07/22 13:49:30;;;;;;;;;;;30.10;61.40;;;;;;5093360;28;19966;-75
2021/07/22 13:52:02;;;;;;;;;;;30.10;63.10;;;;;;5093073;28;20405;-75
2021/07/22 13:54:29;;;;;;;;;;;30.00;60.40;;;;;;5090584;28;20366;-75
2021/07/22 13:56:55;;;;;;;;;;;29.90;60.30;;;;;;5084442;28;19936;-75
2021/07/22 13:59:23;;;;;;;;;;;30.00;63.50;;;;;;5071712;28;19928;-75
2021/07/22 14:01:55;;;;;;;;;;;30.20;63.80;;;;;;5056044;28;19964;-74
2021/07/22 14:04:21;;;;;;;;;;;30.50;65.80;;;;;;5072275;28;20030;-74
2021/07/22 14:06:48;;;;;;;;;;;30.50;60.50;;;;;;5073003;28;19986;-75
2021/07/22 14:09:15;;;;;;;;;;;30.50;62.50;;;;;;5073184;28;19925;-74
2021/07/22 14:11:46;;;;;;;;;;;30.50;64.30;;;;;;5072446;28;19928;-75
2021/07/22 14:14:18;;;;;;;;;;;30.60;61.40;;;;;;5072710;28;20035;-74
2021/07/22 14:16:50;;;;;;;;;;;30.70;59.40;;;;;;5073025;28;20011;-74
2021/07/22 14:19:21;;;;;;;;;;;30.60;63.60;;;;;;5056570;28;20022;-75
2021/07/22 14:21:48;;;;;;;;;;;30.50;64.80;;;;;;5072059;28;19967;-74
2021/07/22 14:24:16;;;;;;;;;;;30.50;64.30;;;;;;5073838;28;19966;-75
2021/07/22 14:26:48;;;;;;;;;;;30.60;65.10;;;;;;5092827;28;19924;-75
2021/07/22 14:29:20;;;;;;;;;;;30.70;64.50;;;;;;5076466;28;19963;-74
2021/07/22 14:31:47;;;;;;;;;;;30.80;63.50;;;;;;5091730;28;19985;-74
2021/07/22 14:34:15;;;;;;;;;;;30.90;61.00;;;;;;5092617;28;19927;-75
2021/07/22 14:36:47;;;;;;;;;;;30.50;59.90;;;;;;5089872;28;20521;-75
2021/07/22 14:39:14;;;;;;;;;;;30.40;62.60;;;;;;5092124;28;20390;-75
2021/07/22 14:41:43;;;;;;;;;;;30.70;61.60;;;;;;5090636;28;19931;-75
2021/07/22 14:44:15;;;;;;;;;;;30.90;59.00;;;;;;5075438;28;19924;-74
2021/07/22 14:46:47;;;;;;;;;;;31.00;60.10;;;;;;5091890;28;19928;-74